Time;durP1;ratioP1;P1;durP2;ratioP2;P2;SDS_P1;SDS_P2;PMS_P1;PMS_P2;Temp;Humidity;BMP_temperature;BMP_pressure;BME280_temperature;BME280_humidity;BME280_pressure;Samples;Min_cycle;Max_cycle;Signal;HPM_P1;HPM_P2
2021/08/26 00:00:28;;;;;;;2.97;0.60;;;;;;;;;;5059258;28;20024;-69
2021/08/26 00:05:48;;;;;;;6.15;0.60;;;;;;;;;;5077137;28;20031;-69
2021/08/26 00:08:15;;;;;;;3.97;0.90;;;;;;;;;;5076518;28;20083;-68
2021/08/26 00:10:41;;;;;;;9.38;0.95;;;;;;;;;;5076830;28;20021;-69
2021/08/26 00:13:07;;;;;;;7.25;1.20;;;;;;;;;;5076636;28;20024;-68
2021/08/26 00:15:36;;;;;;;1.90;0.60;;;;;;;;;;5076436;28;20422;-69
2021/08/26 00:18:04;;;;;;;2.80;0.70;;;;;;;;;;5076098;28;20469;-68
2021/08/26 00:20:30;;;;;;;2.58;0.60;;;;;;;;;;5057965;28;20049;-68
2021/08/26 00:22:56;;;;;;;3.53;0.70;;;;;;;;;;5076098;28;20182;-68
2021/08/26 00:25:22;;;;;;;1.88;0.73;;;;;;;;;;5076344;28;20056;-68
2021/08/26 00:27:48;;;;;;;7.18;0.75;;;;;;;;;;5076364;28;20025;-68
2021/08/26 00:30:14;;;;;;;4.72;0.70;;;;;;;;;;5076087;28;20035;-68
2021/08/26 00:32:40;;;;;;;3.15;1.00;;;;;;;;;;5076239;28;20017;-68
2021/08/26 00:35:06;;;;;;;1.98;0.63;;;;;;;;;;5075625;28;20040;-68
2021/08/26 00:37:32;;;;;;;5.28;0.85;;;;;;;;;;5058307;28;20483;-68
2021/08/26 00:39:58;;;;;;;6.13;0.80;;;;;;;;;;5057954;28;20028;-68
2021/08/26 00:42:24;;;;;;;9.75;0.90;;;;;;;;;;5076135;28;20051;-68
2021/08/26 00:44:50;;;;;;;3.15;0.90;;;;;;;;;;5075914;28;20162;-68
2021/08/26 00:47:16;;;;;;;2.45;0.70;;;;;;;;;;5076029;28;20060;-68
2021/08/26 00:49:42;;;;;;;2.78;0.73;;;;;;;;;;5057805;28;20406;-69
2021/08/26 00:52:10;;;;;;;2.85;0.80;;;;;;;;;;5075725;28;20115;-69
2021/08/26 00:54:36;;;;;;;4.40;0.90;;;;;;;;;;5057739;28;20549;-69
2021/08/26 00:57:02;;;;;;;3.38;1.00;;;;;;;;;;5075285;28;20028;-68
2021/08/26 00:59:31;;;;;;;4.60;0.70;;;;;;;;;;5075223;28;20029;-68
2021/08/26 01:02:03;;;;;;;1.08;0.65;;;;;;;;;;5075221;28;20016;-68
2021/08/26 01:04:34;;;;;;;2.67;0.80;;;;;;;;;;5075033;28;20388;-68
2021/08/26 01:07:05;;;;;;;10.90;0.80;;;;;;;;;;5075085;28;20150;-67
2021/08/26 01:09:42;;;;;;;2.03;0.80;;;;;;;;;;5074190;28;20441;-67
2021/08/26 01:12:09;;;;;;;3.60;1.05;;;;;;;;;;5075286;28;20032;-67
2021/08/26 01:14:36;;;;;;;8.80;1.27;;;;;;;;;;5057139;28;20017;-67
2021/08/26 01:17:03;;;;;;;2.65;0.82;;;;;;;;;;5074536;28;20025;-67
2021/08/26 01:19:29;;;;;;;2.58;0.70;;;;;;;;;;5056837;28;20059;-67
2021/08/26 01:21:55;;;;;;;3.85;0.90;;;;;;;;;;5074806;28;20380;-67
2021/08/26 01:24:23;;;;;;;4.53;1.00;;;;;;;;;;5075035;28;20024;-67
2021/08/26 01:26:51;;;;;;;3.78;1.02;;;;;;;;;;5074831;28;20023;-68
2021/08/26 01:29:18;;;;;;;7.53;1.00;;;;;;;;;;5056900;28;20028;-68
2021/08/26 01:31:44;;;;;;;5.10;1.10;;;;;;;;;;5056941;28;20427;-69
2021/08/26 01:34:10;;;;;;;8.20;1.00;;;;;;;;;;5074791;28;20543;-69
2021/08/26 01:36:36;;;;;;;3.35;1.10;;;;;;;;;;5074673;28;20035;-69
2021/08/26 01:39:13;;;;;;;4.03;0.93;;;;;;;;;;5074619;28;20464;-69
2021/08/26 01:41:48;;;;;;;4.10;0.80;;;;;;;;;;5073923;28;20384;-67
2021/08/26 01:44:15;;;;;;;6.97;0.82;;;;;;;;;;5074942;28;20033;-68
2021/08/26 01:46:41;;;;;;;4.90;1.05;;;;;;;;;;5074676;28;20031;-68
2021/08/26 01:49:07;;;;;;;5.40;0.93;;;;;;;;;;5056227;28;20022;-68
2021/08/26 01:51:33;;;;;;;6.57;1.10;;;;;;;;;;5074263;28;20471;-68
2021/08/26 01:54:01;;;;;;;4.70;1.10;;;;;;;;;;5074383;28;20112;-67
2021/08/26 01:56:26;;;;;;;5.35;0.98;;;;;;;;;;5074257;28;20550;-68
2021/08/26 01:58:52;;;;;;;11.05;1.13;;;;;;;;;;5074355;28;20051;-68
2021/08/26 02:01:18;;;;;;;14.60;1.20;;;;;;;;;;5056609;28;20364;-68
2021/08/26 02:03:44;;;;;;;6.20;1.00;;;;;;;;;;5056198;28;20032;-69
2021/08/26 02:06:10;;;;;;;8.18;0.93;;;;;;;;;;5074227;28;20028;-68
2021/08/26 02:08:36;;;;;;;6.20;1.10;;;;;;;;;;5074047;28;20029;-68
2021/08/26 02:11:02;;;;;;;7.25;1.10;;;;;;;;;;5073998;28;20017;-68
2021/08/26 02:13:28;;;;;;;5.68;1.02;;;;;;;;;;5074027;28;20027;-69
2021/08/26 02:15:54;;;;;;;2.92;1.10;;;;;;;;;;5056209;28;20356;-68
2021/08/26 02:18:20;;;;;;;4.35;1.17;;;;;;;;;;5056206;28;20060;-69
2021/08/26 02:20:46;;;;;;;4.10;1.10;;;;;;;;;;5073523;28;20443;-69
2021/08/26 02:23:12;;;;;;;5.15;1.20;;;;;;;;;;5073920;28;20037;-68
2021/08/26 02:25:38;;;;;;;2.53;0.93;;;;;;;;;;5073877;28;20027;-69
2021/08/26 02:28:05;;;;;;;2.00;1.20;;;;;;;;;;5056249;28;20052;-68
2021/08/26 02:30:31;;;;;;;3.78;1.25;;;;;;;;;;5055652;28;20111;-68
2021/08/26 02:32:57;;;;;;;3.97;1.10;;;;;;;;;;5073615;28;20074;-68
2021/08/26 02:35:23;;;;;;;5.60;1.30;;;;;;;;;;5073502;28;20380;-68
2021/08/26 02:37:49;;;;;;;4.82;1.40;;;;;;;;;;5060223;28;20473;-68
2021/08/26 02:40:15;;;;;;;7.68;1.40;;;;;;;;;;5053464;28;20028;-68
2021/08/26 02:42:41;;;;;;;4.25;1.30;;;;;;;;;;5053278;28;20025;-68
2021/08/26 02:45:07;;;;;;;8.25;1.45;;;;;;;;;;5053582;28;20033;-68
2021/08/26 02:47:33;;;;;;;2.28;1.10;;;;;;;;;;5057706;28;20029;-68
2021/08/26 02:49:59;;;;;;;2.50;1.25;;;;;;;;;;5073333;28;20051;-69
2021/08/26 02:52:25;;;;;;;7.22;1.30;;;;;;;;;;5073568;28;20357;-68
2021/08/26 02:54:51;;;;;;;16.05;1.58;;;;;;;;;;5073275;28;20017;-68
2021/08/26 02:57:17;;;;;;;6.68;1.70;;;;;;;;;;5073174;28;20107;-68
2021/08/26 02:59:43;;;;;;;10.18;1.70;;;;;;;;;;5073095;28;20024;-68
2021/08/26 03:02:09;;;;;;;5.20;1.20;;;;;;;;;;5073139;28;20020;-68
2021/08/26 03:04:35;;;;;;;6.72;1.45;;;;;;;;;;5073503;28;20380;-68
2021/08/26 03:07:01;;;;;;;8.05;1.52;;;;;;;;;;5072990;28;20029;-69
2021/08/26 03:09:27;;;;;;;5.97;1.10;;;;;;;;;;5055180;28;20085;-68
2021/08/26 03:11:53;;;;;;;3.35;1.20;;;;;;;;;;5073003;28;20020;-68
2021/08/26 03:14:19;;;;;;;3.05;1.27;;;;;;;;;;5055166;28;20090;-68
2021/08/26 03:16:45;;;;;;;6.68;1.55;;;;;;;;;;5072994;28;20021;-67
2021/08/26 03:19:10;;;;;;;8.73;1.70;;;;;;;;;;5052447;28;20033;-67
2021/08/26 03:21:37;;;;;;;4.45;1.33;;;;;;;;;;5052834;28;20108;-67
2021/08/26 03:24:03;;;;;;;11.57;1.52;;;;;;;;;;5053044;28;20071;-67
2021/08/26 03:26:29;;;;;;;6.40;1.40;;;;;;;;;;5052539;28;20446;-67
2021/08/26 03:28:55;;;;;;;10.00;1.45;;;;;;;;;;5052538;28;20465;-67
2021/08/26 03:31:21;;;;;;;5.07;1.20;;;;;;;;;;5052033;28;20025;-66
2021/08/26 03:33:47;;;;;;;4.60;1.35;;;;;;;;;;5034716;28;20039;-67
2021/08/26 03:36:13;;;;;;;4.07;1.38;;;;;;;;;;5052488;28;20087;-67
2021/08/26 03:38:39;;;;;;;3.65;1.48;;;;;;;;;;5052641;28;20021;-67
2021/08/26 03:41:05;;;;;;;5.03;1.20;;;;;;;;;;5052507;28;20035;-67
2021/08/26 03:43:31;;;;;;;3.05;1.30;;;;;;;;;;5052363;28;20033;-67
2021/08/26 03:45:57;;;;;;;9.02;1.20;;;;;;;;;;5052558;28;20025;-67
2021/08/26 03:48:23;;;;;;;4.10;1.42;;;;;;;;;;5050619;28;20068;-67
2021/08/26 03:50:49;;;;;;;6.20;1.20;;;;;;;;;;5032601;28;20033;-67
2021/08/26 03:53:15;;;;;;;3.75;1.20;;;;;;;;;;5032654;28;20132;-67
2021/08/26 03:55:41;;;;;;;3.88;1.50;;;;;;;;;;5014781;28;20025;-68
2021/08/26 03:58:07;;;;;;;11.05;1.70;;;;;;;;;;5014572;28;20511;-68
2021/08/26 04:00:33;;;;;;;7.53;1.40;;;;;;;;;;5031412;28;20030;-68
2021/08/26 04:02:59;;;;;;;5.25;1.20;;;;;;;;;;5031248;28;20424;-68
2021/08/26 04:05:25;;;;;;;12.60;1.38;;;;;;;;;;5031327;28;20048;-68
2021/08/26 04:07:51;;;;;;;9.38;1.60;;;;;;;;;;5031497;28;20022;-68
2021/08/26 04:10:17;;;;;;;4.78;1.60;;;;;;;;;;5031429;28;20032;-68
2021/08/26 04:12:43;;;;;;;9.57;1.35;;;;;;;;;;5032112;28;20030;-72
2021/08/26 04:15:09;;;;;;;16.75;1.67;;;;;;;;;;5032454;28;20033;-69
2021/08/26 04:17:35;;;;;;;20.23;1.52;;;;;;;;;;5045502;28;20057;-68
2021/08/26 04:20:01;;;;;;;11.73;1.92;;;;;;;;;;5072359;28;20027;-68
2021/08/26 04:22:27;;;;;;;10.40;1.65;;;;;;;;;;5072146;28;20353;-68
2021/08/26 04:24:53;;;;;;;9.63;1.48;;;;;;;;;;5072569;28;20048;-68
2021/08/26 04:27:19;;;;;;;8.25;1.35;;;;;;;;;;5072416;28;20043;-69
2021/08/26 04:29:45;;;;;;;6.97;1.70;;;;;;;;;;5071974;28;20021;-68
2021/08/26 04:32:10;;;;;;;11.93;1.80;;;;;;;;;;5071846;28;20032;-68
2021/08/26 04:34:36;;;;;;;10.95;1.45;;;;;;;;;;5072281;28;20022;-68
2021/08/26 04:37:03;;;;;;;23.27;1.98;;;;;;;;;;5072123;28;20032;-67
2021/08/26 04:39:28;;;;;;;13.50;1.33;;;;;;;;;;5054087;28;20099;-67
2021/08/26 04:41:54;;;;;;;6.85;1.83;;;;;;;;;;5071873;28;20112;-66
2021/08/26 04:44:20;;;;;;;13.00;1.52;;;;;;;;;;5075150;28;20036;-67
2021/08/26 04:46:46;;;;;;;11.52;1.35;;;;;;;;;;5075207;28;20021;-67
2021/08/26 04:49:12;;;;;;;8.77;1.40;;;;;;;;;;5066847;28;20029;-67
2021/08/26 04:51:38;;;;;;;8.95;1.30;;;;;;;;;;5055385;28;20033;-68
2021/08/26 04:54:04;;;;;;;11.90;1.30;;;;;;;;;;5037707;28;20032;-67
2021/08/26 04:56:30;;;;;;;8.85;1.80;;;;;;;;;;5055473;28;20107;-67
2021/08/26 04:58:56;;;;;;;7.57;1.42;;;;;;;;;;5037423;28;20029;-68
2021/08/26 05:01:22;;;;;;;4.72;1.20;;;;;;;;;;5055316;28;20017;-67
2021/08/26 05:03:48;;;;;;;8.48;1.52;;;;;;;;;;5055581;28;20035;-68
2021/08/26 05:06:14;;;;;;;5.90;1.30;;;;;;;;;;5055569;28;20040;-68
2021/08/26 05:08:40;;;;;;;6.53;1.60;;;;;;;;;;5055438;28;20028;-69
2021/08/26 05:11:06;;;;;;;7.93;1.60;;;;;;;;;;5065007;28;20024;-68
2021/08/26 05:13:32;;;;;;;7.72;1.63;;;;;;;;;;5075625;28;20529;-68
2021/08/26 05:15:58;;;;;;;6.32;1.50;;;;;;;;;;5056781;28;20033;-68
2021/08/26 05:18:24;;;;;;;10.73;1.75;;;;;;;;;;5074605;28;20102;-68
2021/08/26 05:20:50;;;;;;;7.32;1.70;;;;;;;;;;5074971;28;20112;-68
2021/08/26 05:23:16;;;;;;;9.80;1.48;;;;;;;;;;5074556;28;20037;-69
2021/08/26 05:25:42;;;;;;;7.63;1.48;;;;;;;;;;5075227;28;20404;-68
2021/08/26 05:28:07;;;;;;;10.75;1.80;;;;;;;;;;5075396;28;20104;-69
2021/08/26 05:30:37;;;;;;;7.53;1.73;;;;;;;;;;5075144;28;20600;-69
2021/08/26 05:33:03;;;;;;;6.47;1.45;;;;;;;;;;5056932;28;20035;-69
2021/08/26 05:35:29;;;;;;;12.90;1.95;;;;;;;;;;5074860;28;20021;-70
2021/08/26 05:37:55;;;;;;;9.23;1.42;;;;;;;;;;5075026;28;20498;-69
2021/08/26 05:40:21;;;;;;;9.52;1.80;;;;;;;;;;5074430;28;20028;-70
2021/08/26 05:42:47;;;;;;;6.70;1.33;;;;;;;;;;5074519;28;20025;-69
2021/08/26 05:45:12;;;;;;;6.95;1.55;;;;;;;;;;5056362;28;20067;-69
2021/08/26 05:47:39;;;;;;;8.70;1.77;;;;;;;;;;5074421;28;20028;-69
2021/08/26 05:50:05;;;;;;;7.80;1.50;;;;;;;;;;5056913;28;20039;-69
2021/08/26 05:52:31;;;;;;;10.45;1.20;;;;;;;;;;5074297;28;20519;-69
2021/08/26 05:54:57;;;;;;;8.85;1.75;;;;;;;;;;5073855;28;20126;-69
2021/08/26 05:57:23;;;;;;;19.15;1.27;;;;;;;;;;5074368;28;20040;-68
2021/08/26 05:59:49;;;;;;;10.45;1.45;;;;;;;;;;5074096;28;20448;-69
2021/08/26 06:02:15;;;;;;;8.40;1.50;;;;;;;;;;5073917;28;20028;-68
2021/08/26 06:04:41;;;;;;;13.82;1.70;;;;;;;;;;5074060;28;20035;-68
2021/08/26 06:07:07;;;;;;;5.45;1.50;;;;;;;;;;5073766;28;20020;-68
2021/08/26 06:09:33;;;;;;;9.98;1.75;;;;;;;;;;5074061;28;20056;-69
2021/08/26 06:11:59;;;;;;;12.05;1.80;;;;;;;;;;5073345;28;20060;-68
2021/08/26 06:14:25;;;;;;;9.15;1.50;;;;;;;;;;5074102;28;20024;-68
2021/08/26 06:16:51;;;;;;;3.90;1.15;;;;;;;;;;5073667;28;20166;-69
2021/08/26 06:19:16;;;;;;;21.50;2.60;;;;;;;;;;5073957;28;20048;-66
2021/08/26 06:21:42;;;;;;;9.40;1.27;;;;;;;;;;5073800;28;20096;-65
2021/08/26 06:24:08;;;;;;;7.72;1.77;;;;;;;;;;5073626;28;20045;-66
2021/08/26 06:26:37;;;;;;;8.90;1.48;;;;;;;;;;5073782;28;20107;-67
2021/08/26 06:29:02;;;;;;;9.75;1.80;;;;;;;;;;5073568;28;20111;-66
2021/08/26 06:31:28;;;;;;;9.02;1.40;;;;;;;;;;5073496;28;20124;-66
2021/08/26 06:33:54;;;;;;;6.00;1.30;;;;;;;;;;5073850;28;20024;-67
2021/08/26 06:36:20;;;;;;;7.22;1.50;;;;;;;;;;5073560;28;20028;-68
2021/08/26 06:38:46;;;;;;;5.75;1.40;;;;;;;;;;5073424;28;20031;-67
2021/08/26 06:41:12;;;;;;;6.40;1.50;;;;;;;;;;5073248;28;20040;-68
2021/08/26 06:43:38;;;;;;;6.68;1.33;;;;;;;;;;5073397;28;20068;-68
2021/08/26 06:46:04;;;;;;;7.13;1.45;;;;;;;;;;5073010;28;20029;-68
2021/08/26 06:48:30;;;;;;;6.40;1.48;;;;;;;;;;5073352;28;20423;-67
2021/08/26 06:50:56;;;;;;;8.40;1.95;;;;;;;;;;5055336;28;20032;-67
2021/08/26 06:53:22;;;;;;;8.75;1.50;;;;;;;;;;5073199;28;20074;-67
2021/08/26 06:55:48;;;;;;;9.88;2.08;;;;;;;;;;5073228;28;20016;-67
2021/08/26 06:58:14;;;;;;;8.50;1.45;;;;;;;;;;5055112;28;20097;-68
2021/08/26 07:00:40;;;;;;;13.27;1.92;;;;;;;;;;5073092;28;20052;-67
2021/08/26 07:03:06;;;;;;;10.20;1.73;;;;;;;;;;5072795;28;20044;-66
2021/08/26 07:05:32;;;;;;;21.77;2.28;;;;;;;;;;5072062;28;20492;-67
2021/08/26 07:07:58;;;;;;;13.00;2.35;;;;;;;;;;5053933;28;20031;-66
2021/08/26 07:10:24;;;;;;;12.32;2.10;;;;;;;;;;5072705;28;20519;-65
2021/08/26 07:12:50;;;;;;;9.55;1.92;;;;;;;;;;5072703;28;20048;-67
2021/08/26 07:15:16;;;;;;;14.95;2.00;;;;;;;;;;5072443;28;20031;-68
2021/08/26 07:17:42;;;;;;;15.18;2.20;;;;;;;;;;5072539;28;20222;-65
2021/08/26 07:20:09;;;;;;;12.57;1.77;;;;;;;;;;5056864;28;20546;-65
2021/08/26 07:22:35;;;;;;;14.93;1.98;;;;;;;;;;5037497;28;20036;-66
2021/08/26 07:25:01;;;;;;;16.10;2.05;;;;;;;;;;5072457;28;20464;-64
2021/08/26 07:27:27;;;;;;;8.23;1.80;;;;;;;;;;5054367;28;20024;-69
2021/08/26 07:29:54;;;;;;;9.25;1.65;;;;;;;;;;5072394;28;20098;-68
2021/08/26 07:32:20;;;;;;;5.95;1.95;;;;;;;;;;5072084;28;20095;-67
2021/08/26 07:34:46;;;;;;;13.77;2.00;;;;;;;;;;5052734;28;20164;-67
2021/08/26 07:37:12;;;;;;;12.98;2.10;;;;;;;;;;5052444;28;20028;-67
2021/08/26 07:39:38;;;;;;;11.07;2.00;;;;;;;;;;5055063;28;20017;-66
2021/08/26 07:42:04;;;;;;;7.95;1.65;;;;;;;;;;5036725;28;20028;-67
2021/08/26 07:44:30;;;;;;;14.93;1.92;;;;;;;;;;5052041;28;20051;-68
2021/08/26 07:46:56;;;;;;;13.32;2.60;;;;;;;;;;5034564;28;20111;-67
2021/08/26 07:49:22;;;;;;;26.67;2.35;;;;;;;;;;5052003;28;20055;-65
2021/08/26 07:51:48;;;;;;;11.10;2.10;;;;;;;;;;5052093;28;20472;-64
2021/08/26 07:54:14;;;;;;;11.88;1.92;;;;;;;;;;5052057;28;20032;-67
2021/08/26 07:56:40;;;;;;;12.35;2.10;;;;;;;;;;5034550;28;20479;-65
2021/08/26 07:59:06;;;;;;;12.02;2.83;;;;;;;;;;5052259;28;20055;-65
2021/08/26 08:01:32;;;;;;;13.15;1.80;;;;;;;;;;5052511;28;20025;-66
2021/08/26 08:03:58;;;;;;;7.40;1.38;;;;;;;;;;5052149;28;20499;-68
2021/08/26 08:06:24;;;;;;;10.05;1.75;;;;;;;;;;5052102;28;20033;-67
2021/08/26 08:08:50;;;;;;;8.88;1.70;;;;;;;;;;5052221;28;20055;-66
2021/08/26 08:11:17;;;;;;;11.43;1.60;;;;;;;;;;5052035;28;20025;-68
2021/08/26 08:13:43;;;;;;;10.50;1.77;;;;;;;;;;5052504;28;20021;-66
2021/08/26 08:16:09;;;;;;;8.57;1.42;;;;;;;;;;5052087;28;20100;-65
2021/08/26 08:18:35;;;;;;;8.75;1.42;;;;;;;;;;5069311;28;20463;-68
2021/08/26 08:21:02;;;;;;;7.65;1.30;;;;;;;;;;5076160;28;20025;-66
2021/08/26 08:23:28;;;;;;;10.90;1.95;;;;;;;;;;5075592;28;20479;-68
2021/08/26 08:25:55;;;;;;;6.95;1.30;;;;;;;;;;5057981;28;20035;-65
2021/08/26 08:28:21;;;;;;;7.45;1.27;;;;;;;;;;5075741;28;20020;-68
2021/08/26 08:30:47;;;;;;;8.93;1.60;;;;;;;;;;5076091;28;20384;-65
2021/08/26 08:33:13;;;;;;;3.40;1.10;;;;;;;;;;5075157;28;20024;-65
2021/08/26 08:35:39;;;;;;;6.88;1.38;;;;;;;;;;5075557;28;20607;-67
2021/08/26 08:38:06;;;;;;;11.80;1.27;;;;;;;;;;5060221;28;20021;-65
2021/08/26 08:40:32;;;;;;;6.38;1.15;;;;;;;;;;5055917;28;20062;-67
2021/08/26 08:42:58;;;;;;;7.57;1.35;;;;;;;;;;5074631;28;20456;-65
2021/08/26 08:45:24;;;;;;;15.52;1.20;;;;;;;;;;5075251;28;20021;-66
2021/08/26 08:47:51;;;;;;;9.98;1.60;;;;;;;;;;5075336;28;20509;-66
2021/08/26 08:50:21;;;;;;;9.88;1.23;;;;;;;;;;5074941;28;20017;-66
2021/08/26 08:52:47;;;;;;;11.27;1.63;;;;;;;;;;5075660;28;20463;-66
2021/08/26 08:55:14;;;;;;;10.20;1.40;;;;;;;;;;5074950;28;20028;-66
2021/08/26 08:57:40;;;;;;;6.18;1.17;;;;;;;;;;5075173;28;20517;-66
2021/08/26 09:00:11;;;;;;;12.13;1.52;;;;;;;;;;5075120;28;20029;-67
2021/08/26 09:02:37;;;;;;;9.18;1.40;;;;;;;;;;5075472;28;20028;-67
2021/08/26 09:05:04;;;;;;;4.85;1.20;;;;;;;;;;5075227;28;20032;-66
2021/08/26 09:07:31;;;;;;;9.73;1.65;;;;;;;;;;5075012;28;20028;-67
2021/08/26 09:09:57;;;;;;;4.57;1.23;;;;;;;;;;5074222;28;20024;-67
2021/08/26 09:12:56;;;;;;;9.85;1.60;;;;;;;;;;5056908;28;20119;-67
2021/08/26 09:15:26;;;;;;;7.07;1.38;;;;;;;;;;5030532;28;20044;-67
2021/08/26 09:18:11;;;;;;;11.32;1.60;;;;;;;;;;5074941;28;20047;-67
2021/08/26 09:20:46;;;;;;;6.47;1.40;;;;;;;;;;5074678;28;20028;-67
2021/08/26 09:23:12;;;;;;;7.80;1.75;;;;;;;;;;5074730;28;20037;-69
2021/08/26 09:25:39;;;;;;;8.10;1.92;;;;;;;;;;5062071;28;20083;-66
2021/08/26 09:28:06;;;;;;;6.53;1.60;;;;;;;;;;5036738;28;20435;-67
2021/08/26 09:30:32;;;;;;;8.27;1.92;;;;;;;;;;5053663;28;20025;-67
2021/08/26 09:32:59;;;;;;;9.93;1.60;;;;;;;;;;5054796;28;20124;-68
2021/08/26 09:35:32;;;;;;;15.38;1.90;;;;;;;;;;5036920;28;20032;-66
2021/08/26 09:38:00;;;;;;;30.13;2.10;;;;;;;;;;5069323;28;20032;-67
2021/08/26 09:40:27;;;;;;;23.58;1.85;;;;;;;;;;5074436;28;20024;-67
2021/08/26 09:42:57;;;;;;;22.10;2.38;;;;;;;;;;5074175;28;20476;-66
2021/08/26 09:45:27;;;;;;;21.42;1.85;;;;;;;;;;5066505;28;20346;-66
2021/08/26 09:48:01;;;;;;;23.75;2.17;;;;;;;;;;5054326;28;20029;-65
2021/08/26 09:50:37;;;;;;;24.05;2.20;;;;;;;;;;5035991;28;20025;-65
2021/08/26 09:53:03;;;;;;;31.35;2.00;;;;;;;;;;5053710;28;20041;-63
2021/08/26 09:55:49;;;;;;;16.00;1.90;;;;;;;;;;5054011;28;20048;-63
2021/08/26 09:58:16;;;;;;;16.95;2.25;;;;;;;;;;5053849;28;20029;-64
2021/08/26 10:00:42;;;;;;;19.23;2.03;;;;;;;;;;5053588;28;20385;-64
2021/08/26 10:03:11;;;;;;;16.60;2.33;;;;;;;;;;5053778;28;20476;-64
2021/08/26 10:05:43;;;;;;;24.50;2.10;;;;;;;;;;5053500;28;20049;-65
2021/08/26 10:08:09;;;;;;;16.92;2.00;;;;;;;;;;5053733;28;20056;-65
2021/08/26 10:10:36;;;;;;;14.70;1.83;;;;;;;;;;5053484;28;20025;-64
2021/08/26 10:13:02;;;;;;;13.20;2.30;;;;;;;;;;5053389;28;20079;-67
2021/08/26 10:15:28;;;;;;;9.98;2.22;;;;;;;;;;5043350;28;20040;-64
2021/08/26 10:17:54;;;;;;;11.60;1.85;;;;;;;;;;5044950;28;20045;-64
2021/08/26 10:20:21;;;;;;;14.95;2.55;;;;;;;;;;5073334;28;20021;-63
2021/08/26 10:22:48;;;;;;;9.40;2.40;;;;;;;;;;5073395;28;20037;-64
2021/08/26 10:25:14;;;;;;;21.98;2.50;;;;;;;;;;5073335;28;20028;-63
2021/08/26 10:27:41;;;;;;;13.82;2.60;;;;;;;;;;5073279;28;20540;-63
2021/08/26 10:30:07;;;;;;;13.73;2.40;;;;;;;;;;5073304;28;20116;-63
2021/08/26 10:32:33;;;;;;;14.00;2.70;;;;;;;;;;5073226;28;20444;-65
2021/08/26 10:35:08;;;;;;;14.05;2.30;;;;;;;;;;5073150;28;20178;-63
2021/08/26 10:37:43;;;;;;;10.88;2.28;;;;;;;;;;5061806;28;20029;-64
2021/08/26 10:40:27;;;;;;;10.88;2.38;;;;;;;;;;5053180;28;20017;-62
2021/08/26 10:42:54;;;;;;;17.10;2.67;;;;;;;;;;5053019;28;20124;-62
2021/08/26 10:45:33;;;;;;;21.42;2.95;;;;;;;;;;5053206;28;20029;-63
2021/08/26 10:48:03;;;;;;;14.85;2.42;;;;;;;;;;5062696;28;20040;-63
2021/08/26 10:50:38;;;;;;;15.20;2.78;;;;;;;;;;5072968;28;20013;-63
2021/08/26 10:53:12;;;;;;;14.73;2.88;;;;;;;;;;5072946;28;20093;-63
2021/08/26 10:55:40;;;;;;;15.93;2.58;;;;;;;;;;5072959;28;20035;-63
2021/08/26 10:58:18;;;;;;;13.75;2.63;;;;;;;;;;5066768;28;20032;-64
2021/08/26 11:00:45;;;;;;;16.45;2.58;;;;;;;;;;5049092;28;20086;-63
2021/08/26 11:03:31;;;;;;;13.00;2.95;;;;;;;;;;5072620;28;20032;-62
2021/08/26 11:05:57;;;;;;;21.60;2.92;;;;;;;;;;5062683;28;20028;-62
2021/08/26 11:08:30;;;;;;;15.65;3.20;;;;;;;;;;5072306;28;20117;-62
2021/08/26 11:10:56;;;;;;;14.93;3.03;;;;;;;;;;5073027;28;20070;-63
2021/08/26 11:13:27;;;;;;;11.52;2.83;;;;;;;;;;5071874;28;20063;-62
2021/08/26 11:15:53;;;;;;;13.90;2.75;;;;;;;;;;5063465;28;20349;-64
2021/08/26 11:18:27;;;;;;;20.70;3.00;;;;;;;;;;5053763;28;20083;-64
2021/08/26 11:20:53;;;;;;;17.15;2.88;;;;;;;;;;5072059;28;20033;-66
2021/08/26 11:23:19;;;;;;;41.90;3.35;;;;;;;;;;5071822;28;20044;-66
2021/08/26 11:25:45;;;;;;;37.67;3.47;;;;;;;;;;5072138;28;20769;-61
2021/08/26 11:28:28;;;;;;;29.48;3.55;;;;;;;;;;5072268;28;20085;-62
2021/08/26 11:30:54;;;;;;;27.23;3.08;;;;;;;;;;5072131;28;20028;-61
2021/08/26 11:33:29;;;;;;;21.88;3.03;;;;;;;;;;5072476;28;20085;-62
2021/08/26 11:35:55;;;;;;;24.75;3.05;;;;;;;;;;5072464;28;20024;-63
2021/08/26 11:38:21;;;;;;;28.73;3.20;;;;;;;;;;5072201;28;20025;-63
2021/08/26 11:40:47;;;;;;;27.88;3.28;;;;;;;;;;5072402;28;20143;-63
2021/08/26 11:43:13;;;;;;;20.90;3.10;;;;;;;;;;5072340;28;20062;-63
2021/08/26 11:45:40;;;;;;;17.95;2.88;;;;;;;;;;5072151;28;20025;-64
2021/08/26 11:48:08;;;;;;;15.80;3.10;;;;;;;;;;5072509;28;20032;-64
2021/08/26 11:50:39;;;;;;;21.92;2.97;;;;;;;;;;5072390;28;20027;-63
2021/08/26 11:53:11;;;;;;;21.98;2.90;;;;;;;;;;5074065;28;20079;-64
2021/08/26 11:55:38;;;;;;;9.65;2.50;;;;;;;;;;5076338;28;20039;-63
2021/08/26 11:58:06;;;;;;;11.48;2.60;;;;;;;;;;5075989;28;20527;-64
2021/08/26 12:00:32;;;;;;;15.82;2.78;;;;;;;;;;5074499;28;20082;-64
2021/08/26 12:02:59;;;;;;;16.17;2.67;;;;;;;;;;5059588;28;20036;-65
2021/08/26 12:05:26;;;;;;;11.10;2.40;;;;;;;;;;5075964;28;20021;-64
2021/08/26 12:07:53;;;;;;;16.10;3.17;;;;;;;;;;5075973;28;20154;-65
2021/08/26 12:10:26;;;;;;;13.85;2.80;;;;;;;;;;5075968;28;20027;-65
2021/08/26 12:12:52;;;;;;;11.35;2.42;;;;;;;;;;5076031;28;20039;-64
2021/08/26 12:15:23;;;;;;;15.82;1.95;;;;;;;;;;5058035;28;20025;-64
2021/08/26 12:17:50;;;;;;;11.00;2.55;;;;;;;;;;5057769;28;20472;-64
2021/08/26 12:20:16;;;;;;;13.88;2.67;;;;;;;;;;5075969;28;20037;-65
2021/08/26 12:22:47;;;;;;;13.32;2.40;;;;;;;;;;5075845;28;20028;-64
2021/08/26 12:25:18;;;;;;;9.82;2.22;;;;;;;;;;5057929;28;20037;-64
2021/08/26 12:27:49;;;;;;;14.02;3.10;;;;;;;;;;5075522;28;20415;-65
2021/08/26 12:30:25;;;;;;;10.80;2.28;;;;;;;;;;5075180;28;20033;-64
2021/08/26 12:32:51;;;;;;;9.38;2.70;;;;;;;;;;5072057;28;20449;-65
2021/08/26 12:35:20;;;;;;;11.00;2.38;;;;;;;;;;5075117;28;20036;-62
2021/08/26 12:37:51;;;;;;;11.20;2.67;;;;;;;;;;5075376;28;20047;-63
2021/08/26 12:40:17;;;;;;;16.00;2.92;;;;;;;;;;5075780;28;20028;-62
2021/08/26 12:42:55;;;;;;;9.77;2.20;;;;;;;;;;5057449;28;20460;-64
2021/08/26 12:45:21;;;;;;;14.82;2.22;;;;;;;;;;5075663;28;20028;-64
2021/08/26 12:47:47;;;;;;;13.05;2.60;;;;;;;;;;5075111;28;20060;-65
2021/08/26 12:50:13;;;;;;;14.60;2.50;;;;;;;;;;5074615;28;20056;-64
2021/08/26 12:52:40;;;;;;;11.68;2.55;;;;;;;;;;5075097;28;20093;-64
2021/08/26 12:55:07;;;;;;;12.15;2.42;;;;;;;;;;5075012;28;20455;-63
2021/08/26 12:57:35;;;;;;;11.63;3.03;;;;;;;;;;5075175;28;20373;-63
2021/08/26 13:00:01;;;;;;;7.68;2.33;;;;;;;;;;5074880;28;20461;-63
2021/08/26 13:02:26;;;;;;;12.88;2.65;;;;;;;;;;5075091;28;20032;-64
2021/08/26 13:05:03;;;;;;;13.13;3.10;;;;;;;;;;5073945;28;20456;-64
2021/08/26 13:07:29;;;;;;;8.43;2.70;;;;;;;;;;5067464;28;20013;-63
2021/08/26 13:09:56;;;;;;;8.02;2.35;;;;;;;;;;5055190;28;20025;-62
2021/08/26 13:12:22;;;;;;;12.98;3.03;;;;;;;;;;5054872;28;20040;-61
2021/08/26 13:14:50;;;;;;;10.63;2.95;;;;;;;;;;5054991;28;20036;-62
2021/08/26 13:17:16;;;;;;;10.40;2.58;;;;;;;;;;5054886;28;20036;-62
2021/08/26 13:19:42;;;;;;;10.52;2.45;;;;;;;;;;5055024;28;20033;-62
2021/08/26 13:22:25;;;;;;;10.13;2.97;;;;;;;;;;5054478;28;20040;-62
2021/08/26 13:24:51;;;;;;;12.27;2.70;;;;;;;;;;5054704;28;20476;-62
2021/08/26 13:27:18;;;;;;;11.00;2.47;;;;;;;;;;5054556;28;20440;-62
2021/08/26 13:29:44;;;;;;;8.40;2.38;;;;;;;;;;5054548;28;20369;-62
2021/08/26 13:32:11;;;;;;;9.05;2.38;;;;;;;;;;5054662;28;20021;-62
2021/08/26 13:34:37;;;;;;;14.02;3.10;;;;;;;;;;5054849;28;20052;-61
2021/08/26 13:37:03;;;;;;;8.55;2.38;;;;;;;;;;5054614;28;20455;-62
2021/08/26 13:39:29;;;;;;;12.45;3.28;;;;;;;;;;5054730;28;20071;-62
2021/08/26 13:41:56;;;;;;;8.95;2.45;;;;;;;;;;5036929;28;20048;-63
2021/08/26 13:44:25;;;;;;;8.65;2.47;;;;;;;;;;5036361;28;20040;-62
2021/08/26 13:46:51;;;;;;;12.68;2.60;;;;;;;;;;5054301;28;20099;-62
2021/08/26 13:49:17;;;;;;;9.50;2.20;;;;;;;;;;5054413;28;20133;-62
2021/08/26 13:51:46;;;;;;;13.07;3.35;;;;;;;;;;5053762;28;20534;-62
2021/08/26 13:54:13;;;;;;;18.23;3.20;;;;;;;;;;5054058;28;20452;-62
2021/08/26 13:56:39;;;;;;;14.05;3.35;;;;;;;;;;5053921;28;20400;-61
2021/08/26 13:59:05;;;;;;;16.00;2.90;;;;;;;;;;5053771;28;20388;-61
2021/08/26 14:01:31;;;;;;;20.77;2.88;;;;;;;;;;5053639;28;20041;-62
2021/08/26 14:03:57;;;;;;;16.30;2.80;;;;;;;;;;5053832;28;20037;-62
2021/08/26 14:06:23;;;;;;;19.77;2.90;;;;;;;;;;5053594;28;20035;-62
2021/08/26 14:08:49;;;;;;;19.65;4.35;;;;;;;;;;5053605;28;20025;-63
2021/08/26 14:11:15;;;;;;;27.13;4.00;;;;;;;;;;5053799;28;20131;-62
2021/08/26 14:13:41;;;;;;;18.27;2.80;;;;;;;;;;5032530;28;20026;-62
2021/08/26 14:16:07;;;;;;;22.10;3.80;;;;;;;;;;5047858;28;20033;-61
2021/08/26 14:18:33;;;;;;;17.13;3.03;;;;;;;;;;5065922;28;20122;-62
2021/08/26 14:21:00;;;;;;;16.65;3.30;;;;;;;;;;5073431;28;20446;-62
2021/08/26 14:23:28;;;;;;;21.45;3.38;;;;;;;;;;5073518;28;20511;-62
2021/08/26 14:25:54;;;;;;;13.15;2.85;;;;;;;;;;5073483;28;20021;-62
2021/08/26 14:28:20;;;;;;;16.65;3.45;;;;;;;;;;5055280;28;20024;-62
2021/08/26 14:30:46;;;;;;;10.70;2.78;;;;;;;;;;5073264;28;20070;-62
2021/08/26 14:33:12;;;;;;;16.45;3.40;;;;;;;;;;5072965;28;20059;-62
2021/08/26 14:35:38;;;;;;;14.13;3.00;;;;;;;;;;5072808;28;20024;-62
2021/08/26 14:38:04;;;;;;;13.73;3.65;;;;;;;;;;5072943;28;20055;-62